sensor_id;sensor_type;location;lat;lon;timestamp;P1;durP1;ratioP1;P2;durP2;ratioP2
62056;SDS011;48016;50.284;18.860;2023-01-13T00:01:15;11.50;;;4.10;;
62056;SDS011;48016;50.284;18.860;2023-01-13T00:03:43;10.20;;;3.70;;
62056;SDS011;48016;50.284;18.860;2023-01-13T00:06:14;6.90;;;3.40;;
62056;SDS011;48016;50.284;18.860;2023-01-13T00:08:42;9.30;;;3.70;;
62056;SDS011;48016;50.284;18.860;2023-01-13T00:11:09;8.30;;;3.40;;
62056;SDS011;48016;50.284;18.860;2023-01-13T00:13:36;7.90;;;3.50;;
62056;SDS011;48016;50.284;18.860;2023-01-13T00:16:05;10.00;;;3.30;;
62056;SDS011;48016;50.284;18.860;2023-01-13T00:18:35;8.50;;;3.40;;
62056;SDS011;48016;50.284;18.860;2023-01-13T00:21:06;8.70;;;3.10;;
62056;SDS011;48016;50.284;18.860;2023-01-13T00:23:36;8.00;;;3.60;;
62056;SDS011;48016;50.284;18.860;2023-01-13T00:26:05;7.10;;;2.60;;
62056;SDS011;48016;50.284;18.860;2023-01-13T00:28:34;8.40;;;2.70;;
62056;SDS011;48016;50.284;18.860;2023-01-13T00:31:05;9.00;;;2.60;;
62056;SDS011;48016;50.284;18.860;2023-01-13T00:33:37;8.10;;;2.70;;
62056;SDS011;48016;50.284;18.860;2023-01-13T00:36:04;11.40;;;3.10;;
62056;SDS011;48016;50.284;18.860;2023-01-13T00:38:33;7.70;;;3.10;;
62056;SDS011;48016;50.284;18.860;2023-01-13T00:41:02;7.30;;;3.00;;
62056;SDS011;48016;50.284;18.860;2023-01-13T00:43:36;10.00;;;3.80;;
62056;SDS011;48016;50.284;18.860;2023-01-13T00:46:04;9.60;;;3.80;;
62056;SDS011;48016;50.284;18.860;2023-01-13T00:48:33;9.20;;;3.50;;
62056;SDS011;48016;50.284;18.860;2023-01-13T00:53:31;8.80;;;3.40;;
62056;SDS011;48016;50.284;18.860;2023-01-13T00:56:04;10.60;;;4.10;;
62056;SDS011;48016;50.284;18.860;2023-01-13T00:58:33;8.30;;;3.50;;
62056;SDS011;48016;50.284;18.860;2023-01-13T01:01:01;9.10;;;3.30;;
62056;SDS011;48016;50.284;18.860;2023-01-13T01:03:33;8.80;;;3.40;;
62056;SDS011;48016;50.284;18.860;2023-01-13T01:08:32;6.10;;;2.70;;
62056;SDS011;48016;50.284;18.860;2023-01-13T01:11:04;8.70;;;2.70;;
62056;SDS011;48016;50.284;18.860;2023-01-13T01:13:39;7.40;;;2.80;;
62056;SDS011;48016;50.284;18.860;2023-01-13T01:16:07;7.30;;;2.80;;
62056;SDS011;48016;50.284;18.860;2023-01-13T01:18:36;5.60;;;2.60;;
62056;SDS011;48016;50.284;18.860;2023-01-13T01:21:05;9.10;;;3.00;;
62056;SDS011;48016;50.284;18.860;2023-01-13T01:23:33;6.30;;;2.50;;
62056;SDS011;48016;50.284;18.860;2023-01-13T01:26:11;7.10;;;2.90;;
62056;SDS011;48016;50.284;18.860;2023-01-13T01:28:42;6.40;;;2.90;;
62056;SDS011;48016;50.284;18.860;2023-01-13T01:31:13;6.60;;;3.00;;
62056;SDS011;48016;50.284;18.860;2023-01-13T01:33:45;7.20;;;2.80;;
62056;SDS011;48016;50.284;18.860;2023-01-13T01:36:13;5.30;;;2.50;;
62056;SDS011;48016;50.284;18.860;2023-01-13T01:38:42;6.70;;;2.60;;
62056;SDS011;48016;50.284;18.860;2023-01-13T01:41:14;7.80;;;2.90;;
62056;SDS011;48016;50.284;18.860;2023-01-13T01:43:50;5.70;;;2.80;;
62056;SDS011;48016;50.284;18.860;2023-01-13T01:46:42;5.80;;;2.40;;
62056;SDS011;48016;50.284;18.860;2023-01-13T01:49:13;4.90;;;2.50;;
62056;SDS011;48016;50.284;18.860;2023-01-13T01:51:58;5.70;;;2.80;;
62056;SDS011;48016;50.284;18.860;2023-01-13T01:54:39;6.90;;;2.90;;
62056;SDS011;48016;50.284;18.860;2023-01-13T02:00:20;6.90;;;3.40;;
62056;SDS011;48016;50.284;18.860;2023-01-13T02:02:48;7.10;;;3.20;;
62056;SDS011;48016;50.284;18.860;2023-01-13T02:05:17;7.00;;;3.40;;
62056;SDS011;48016;50.284;18.860;2023-01-13T02:07:45;9.10;;;3.30;;
62056;SDS011;48016;50.284;18.860;2023-01-13T02:10:16;7.70;;;3.80;;
62056;SDS011;48016;50.284;18.860;2023-01-13T02:12:46;7.50;;;3.60;;
62056;SDS011;48016;50.284;18.860;2023-01-13T02:15:15;10.40;;;3.90;;
62056;SDS011;48016;50.284;18.860;2023-01-13T02:32:58;8.80;;;3.40;;
62056;SDS011;48016;50.284;18.860;2023-01-13T02:35:31;6.80;;;3.20;;
62056;SDS011;48016;50.284;18.860;2023-01-13T02:40:36;6.90;;;2.70;;
62056;SDS011;48016;50.284;18.860;2023-01-13T02:43:26;8.30;;;3.30;;
62056;SDS011;48016;50.284;18.860;2023-01-13T02:46:21;7.60;;;3.00;;
62056;SDS011;48016;50.284;18.860;2023-01-13T02:48:53;7.30;;;3.70;;
62056;SDS011;48016;50.284;18.860;2023-01-13T02:51:26;8.80;;;4.10;;
62056;SDS011;48016;50.284;18.860;2023-01-13T02:53:58;8.00;;;3.90;;
62056;SDS011;48016;50.284;18.860;2023-01-13T02:56:30;8.60;;;3.90;;
62056;SDS011;48016;50.284;18.860;2023-01-13T02:58:59;8.30;;;4.50;;
62056;SDS011;48016;50.284;18.860;2023-01-13T03:03:54;8.50;;;4.70;;
62056;SDS011;48016;50.284;18.860;2023-01-13T03:06:29;8.90;;;5.00;;
62056;SDS011;48016;50.284;18.860;2023-01-13T03:09:23;10.40;;;4.50;;
62056;SDS011;48016;50.284;18.860;2023-01-13T03:14:41;12.90;;;5.60;;
62056;SDS011;48016;50.284;18.860;2023-01-13T03:17:41;10.60;;;5.50;;
62056;SDS011;48016;50.284;18.860;2023-01-13T03:20:20;7.80;;;4.30;;
62056;SDS011;48016;50.284;18.860;2023-01-13T03:22:54;9.90;;;4.60;;
62056;SDS011;48016;50.284;18.860;2023-01-13T03:25:52;8.40;;;4.30;;
62056;SDS011;48016;50.284;18.860;2023-01-13T03:28:31;9.50;;;4.10;;
62056;SDS011;48016;50.284;18.860;2023-01-13T03:31:03;8.00;;;3.90;;
62056;SDS011;48016;50.284;18.860;2023-01-13T03:33:37;7.30;;;3.80;;
62056;SDS011;48016;50.284;18.860;2023-01-13T03:36:11;7.70;;;3.90;;
62056;SDS011;48016;50.284;18.860;2023-01-13T03:38:45;7.20;;;3.80;;
62056;SDS011;48016;50.284;18.860;2023-01-13T03:41:22;7.60;;;3.90;;
62056;SDS011;48016;50.284;18.860;2023-01-13T03:44:16;6.70;;;3.90;;
62056;SDS011;48016;50.284;18.860;2023-01-13T03:49:54;8.10;;;4.80;;
62056;SDS011;48016;50.284;18.860;2023-01-13T03:52:40;6.60;;;3.70;;
62056;SDS011;48016;50.284;18.860;2023-01-13T03:55:15;8.50;;;3.90;;
62056;SDS011;48016;50.284;18.860;2023-01-13T03:57:54;7.40;;;4.30;;
62056;SDS011;48016;50.284;18.860;2023-01-13T04:00:31;6.70;;;3.20;;
62056;SDS011;48016;50.284;18.860;2023-01-13T04:03:06;7.40;;;3.80;;
62056;SDS011;48016;50.284;18.860;2023-01-13T04:05:38;10.00;;;4.60;;
62056;SDS011;48016;50.284;18.860;2023-01-13T04:08:20;7.30;;;4.40;;
62056;SDS011;48016;50.284;18.860;2023-01-13T04:10:57;9.20;;;4.70;;
62056;SDS011;48016;50.284;18.860;2023-01-13T04:15:56;8.80;;;4.70;;
62056;SDS011;48016;50.284;18.860;2023-01-13T04:18:25;7.30;;;4.20;;
62056;SDS011;48016;50.284;18.860;2023-01-13T04:20:55;7.90;;;4.20;;
62056;SDS011;48016;50.284;18.860;2023-01-13T04:23:24;9.10;;;4.60;;
62056;SDS011;48016;50.284;18.860;2023-01-13T04:25:51;8.00;;;4.00;;
62056;SDS011;48016;50.284;18.860;2023-01-13T04:28:17;9.50;;;3.80;;
62056;SDS011;48016;50.284;18.860;2023-01-13T04:30:45;8.30;;;4.20;;
62056;SDS011;48016;50.284;18.860;2023-01-13T04:33:13;7.80;;;4.10;;
62056;SDS011;48016;50.284;18.860;2023-01-13T04:35:41;8.40;;;4.70;;
62056;SDS011;48016;50.284;18.860;2023-01-13T04:38:11;8.90;;;4.40;;
62056;SDS011;48016;50.284;18.860;2023-01-13T04:40:40;9.00;;;4.30;;
62056;SDS011;48016;50.284;18.860;2023-01-13T04:43:07;10.40;;;4.40;;
62056;SDS011;48016;50.284;18.860;2023-01-13T04:45:34;6.50;;;4.00;;
62056;SDS011;48016;50.284;18.860;2023-01-13T04:48:01;8.60;;;4.30;;
62056;SDS011;48016;50.284;18.860;2023-01-13T04:50:29;7.10;;;4.10;;
62056;SDS011;48016;50.284;18.860;2023-01-13T04:52:56;13.10;;;4.60;;
62056;SDS011;48016;50.284;18.860;2023-01-13T04:55:23;7.90;;;3.50;;
62056;SDS011;48016;50.284;18.860;2023-01-13T04:57:50;8.60;;;3.80;;
62056;SDS011;48016;50.284;18.860;2023-01-13T05:00:19;8.90;;;3.80;;
62056;SDS011;48016;50.284;18.860;2023-01-13T05:02:50;7.80;;;3.90;;
62056;SDS011;48016;50.284;18.860;2023-01-13T05:05:18;7.90;;;4.10;;
62056;SDS011;48016;50.284;18.860;2023-01-13T05:07:45;8.50;;;4.10;;
62056;SDS011;48016;50.284;18.860;2023-01-13T05:10:12;7.40;;;3.80;;
62056;SDS011;48016;50.284;18.860;2023-01-13T05:12:39;6.00;;;3.30;;
62056;SDS011;48016;50.284;18.860;2023-01-13T05:15:24;7.60;;;3.50;;
62056;SDS011;48016;50.284;18.860;2023-01-13T05:18:10;7.40;;;3.40;;
62056;SDS011;48016;50.284;18.860;2023-01-13T05:20:37;6.30;;;3.90;;
62056;SDS011;48016;50.284;18.860;2023-01-13T05:23:04;8.40;;;3.90;;
62056;SDS011;48016;50.284;18.860;2023-01-13T05:25:50;8.80;;;4.20;;
62056;SDS011;48016;50.284;18.860;2023-01-13T05:28:16;7.10;;;3.70;;
62056;SDS011;48016;50.284;18.860;2023-01-13T05:30:44;7.40;;;3.30;;
62056;SDS011;48016;50.284;18.860;2023-01-13T05:33:13;8.80;;;4.00;;
62056;SDS011;48016;50.284;18.860;2023-01-13T05:35:42;8.10;;;3.90;;
62056;SDS011;48016;50.284;18.860;2023-01-13T05:38:11;11.80;;;4.70;;
62056;SDS011;48016;50.284;18.860;2023-01-13T05:40:38;7.30;;;3.50;;
62056;SDS011;48016;50.284;18.860;2023-01-13T05:43:25;7.40;;;3.90;;
62056;SDS011;48016;50.284;18.860;2023-01-13T05:45:55;7.40;;;3.70;;
62056;SDS011;48016;50.284;18.860;2023-01-13T05:48:26;8.10;;;3.60;;
62056;SDS011;48016;50.284;18.860;2023-01-13T05:50:57;8.20;;;3.70;;
62056;SDS011;48016;50.284;18.860;2023-01-13T05:53:24;9.90;;;4.00;;
62056;SDS011;48016;50.284;18.860;2023-01-13T05:55:51;7.00;;;3.70;;
62056;SDS011;48016;50.284;18.860;2023-01-13T05:58:20;7.00;;;3.20;;
62056;SDS011;48016;50.284;18.860;2023-01-13T06:00:48;9.00;;;4.20;;
62056;SDS011;48016;50.284;18.860;2023-01-13T06:03:15;7.30;;;3.70;;
62056;SDS011;48016;50.284;18.860;2023-01-13T06:05:45;9.30;;;4.70;;
62056;SDS011;48016;50.284;18.860;2023-01-13T06:08:12;10.50;;;4.40;;
62056;SDS011;48016;50.284;18.860;2023-01-13T06:10:40;10.30;;;4.80;;
62056;SDS011;48016;50.284;18.860;2023-01-13T06:15:34;10.30;;;4.00;;
62056;SDS011;48016;50.284;18.860;2023-01-13T06:18:01;9.30;;;3.80;;
62056;SDS011;48016;50.284;18.860;2023-01-13T06:20:30;9.30;;;4.40;;
62056;SDS011;48016;50.284;18.860;2023-01-13T06:22:57;9.70;;;4.40;;
62056;SDS011;48016;50.284;18.860;2023-01-13T06:25:29;8.60;;;4.80;;
62056;SDS011;48016;50.284;18.860;2023-01-13T06:28:11;9.70;;;4.60;;
62056;SDS011;48016;50.284;18.860;2023-01-13T06:30:41;7.00;;;3.70;;
62056;SDS011;48016;50.284;18.860;2023-01-13T06:33:12;8.00;;;3.90;;
62056;SDS011;48016;50.284;18.860;2023-01-13T06:35:44;7.80;;;4.00;;
62056;SDS011;48016;50.284;18.860;2023-01-13T06:38:16;9.70;;;4.20;;
62056;SDS011;48016;50.284;18.860;2023-01-13T06:40:45;8.20;;;4.30;;
62056;SDS011;48016;50.284;18.860;2023-01-13T06:43:12;6.20;;;3.40;;
62056;SDS011;48016;50.284;18.860;2023-01-13T06:45:44;9.70;;;4.50;;
62056;SDS011;48016;50.284;18.860;2023-01-13T06:48:25;12.90;;;5.60;;
62056;SDS011;48016;50.284;18.860;2023-01-13T06:50:58;14.20;;;6.20;;
62056;SDS011;48016;50.284;18.860;2023-01-13T06:53:24;10.30;;;5.00;;
62056;SDS011;48016;50.284;18.860;2023-01-13T06:55:51;12.20;;;6.40;;
62056;SDS011;48016;50.284;18.860;2023-01-13T06:58:18;22.00;;;14.40;;
62056;SDS011;48016;50.284;18.860;2023-01-13T07:00:44;58.90;;;32.70;;
62056;SDS011;48016;50.284;18.860;2023-01-13T07:03:16;16.90;;;8.10;;
62056;SDS011;48016;50.284;18.860;2023-01-13T07:05:49;11.90;;;6.80;;
62056;SDS011;48016;50.284;18.860;2023-01-13T07:08:17;12.70;;;6.60;;
62056;SDS011;48016;50.284;18.860;2023-01-13T07:10:44;14.30;;;5.70;;
62056;SDS011;48016;50.284;18.860;2023-01-13T07:13:11;9.90;;;4.90;;
62056;SDS011;48016;50.284;18.860;2023-01-13T07:15:57;16.30;;;6.30;;
62056;SDS011;48016;50.284;18.860;2023-01-13T07:18:26;13.20;;;6.00;;
62056;SDS011;48016;50.284;18.860;2023-01-13T07:21:00;13.40;;;6.40;;
62056;SDS011;48016;50.284;18.860;2023-01-13T07:23:29;15.80;;;6.10;;
62056;SDS011;48016;50.284;18.860;2023-01-13T07:25:58;14.50;;;6.70;;
62056;SDS011;48016;50.284;18.860;2023-01-13T07:28:26;14.70;;;7.00;;
62056;SDS011;48016;50.284;18.860;2023-01-13T07:30:54;14.40;;;7.00;;
62056;SDS011;48016;50.284;18.860;2023-01-13T07:35:59;11.00;;;5.80;;
62056;SDS011;48016;50.284;18.860;2023-01-13T07:38:28;14.80;;;6.00;;
62056;SDS011;48016;50.284;18.860;2023-01-13T07:40:55;17.40;;;6.80;;
62056;SDS011;48016;50.284;18.860;2023-01-13T07:43:23;16.80;;;7.80;;
62056;SDS011;48016;50.284;18.860;2023-01-13T07:46:03;13.20;;;7.20;;
62056;SDS011;48016;50.284;18.860;2023-01-13T07:48:32;14.60;;;7.00;;
62056;SDS011;48016;50.284;18.860;2023-01-13T07:51:01;14.80;;;6.50;;
62056;SDS011;48016;50.284;18.860;2023-01-13T07:53:33;13.40;;;6.10;;
62056;SDS011;48016;50.284;18.860;2023-01-13T07:56:01;13.60;;;6.10;;
62056;SDS011;48016;50.284;18.860;2023-01-13T07:58:33;15.30;;;6.20;;
62056;SDS011;48016;50.284;18.860;2023-01-13T08:01:10;12.90;;;5.90;;
62056;SDS011;48016;50.284;18.860;2023-01-13T08:03:39;12.30;;;6.00;;
62056;SDS011;48016;50.284;18.860;2023-01-13T08:06:06;12.20;;;5.90;;
62056;SDS011;48016;50.284;18.860;2023-01-13T08:08:34;11.40;;;5.60;;
62056;SDS011;48016;50.284;18.860;2023-01-13T08:11:01;14.80;;;6.50;;
62056;SDS011;48016;50.284;18.860;2023-01-13T08:13:29;14.40;;;6.60;;
62056;SDS011;48016;50.284;18.860;2023-01-13T08:16:04;13.60;;;6.50;;
62056;SDS011;48016;50.284;18.860;2023-01-13T08:18:33;11.90;;;6.10;;
62056;SDS011;48016;50.284;18.860;2023-01-13T08:21:02;12.40;;;6.30;;
62056;SDS011;48016;50.284;18.860;2023-01-13T08:23:37;11.50;;;5.20;;
62056;SDS011;48016;50.284;18.860;2023-01-13T08:26:05;10.60;;;5.20;;
62056;SDS011;48016;50.284;18.860;2023-01-13T08:28:34;10.20;;;5.40;;
62056;SDS011;48016;50.284;18.860;2023-01-13T08:31:02;10.20;;;4.90;;
62056;SDS011;48016;50.284;18.860;2023-01-13T08:33:30;10.40;;;5.30;;
62056;SDS011;48016;50.284;18.860;2023-01-13T08:36:01;8.60;;;4.40;;
62056;SDS011;48016;50.284;18.860;2023-01-13T08:38:29;7.50;;;4.20;;
62056;SDS011;48016;50.284;18.860;2023-01-13T08:40:56;10.30;;;5.00;;
62056;SDS011;48016;50.284;18.860;2023-01-13T08:43:22;9.30;;;4.50;;
62056;SDS011;48016;50.284;18.860;2023-01-13T08:45:57;14.50;;;6.00;;
62056;SDS011;48016;50.284;18.860;2023-01-13T08:48:26;11.60;;;6.10;;
62056;SDS011;48016;50.284;18.860;2023-01-13T08:53:26;13.60;;;5.80;;
62056;SDS011;48016;50.284;18.860;2023-01-13T08:55:53;11.40;;;5.50;;
62056;SDS011;48016;50.284;18.860;2023-01-13T08:58:20;12.60;;;6.50;;
62056;SDS011;48016;50.284;18.860;2023-01-13T09:00:46;13.50;;;6.30;;
62056;SDS011;48016;50.284;18.860;2023-01-13T09:03:13;10.90;;;5.60;;
62056;SDS011;48016;50.284;18.860;2023-01-13T09:05:40;11.70;;;6.10;;
62056;SDS011;48016;50.284;18.860;2023-01-13T09:08:07;9.80;;;5.50;;
62056;SDS011;48016;50.284;18.860;2023-01-13T09:10:34;8.90;;;5.30;;
62056;SDS011;48016;50.284;18.860;2023-01-13T09:13:01;10.60;;;4.90;;
62056;SDS011;48016;50.284;18.860;2023-01-13T09:15:37;12.20;;;5.10;;
62056;SDS011;48016;50.284;18.860;2023-01-13T09:18:09;10.30;;;5.60;;
62056;SDS011;48016;50.284;18.860;2023-01-13T09:23:03;10.40;;;5.90;;
62056;SDS011;48016;50.284;18.860;2023-01-13T09:25:30;9.30;;;5.10;;
62056;SDS011;48016;50.284;18.860;2023-01-13T09:27:57;11.60;;;5.40;;
62056;SDS011;48016;50.284;18.860;2023-01-13T09:30:24;12.80;;;6.50;;
62056;SDS011;48016;50.284;18.860;2023-01-13T09:32:51;10.00;;;5.40;;
62056;SDS011;48016;50.284;18.860;2023-01-13T09:35:38;10.50;;;5.50;;
62056;SDS011;48016;50.284;18.860;2023-01-13T09:38:05;10.10;;;5.30;;
62056;SDS011;48016;50.284;18.860;2023-01-13T09:40:32;9.60;;;5.10;;
62056;SDS011;48016;50.284;18.860;2023-01-13T09:43:19;10.20;;;4.70;;
62056;SDS011;48016;50.284;18.860;2023-01-13T09:46:34;9.30;;;4.90;;
62056;SDS011;48016;50.284;18.860;2023-01-13T09:49:33;8.50;;;4.50;;
62056;SDS011;48016;50.284;18.860;2023-01-13T09:55:09;12.70;;;6.80;;
62056;SDS011;48016;50.284;18.860;2023-01-13T09:57:40;14.60;;;6.50;;
62056;SDS011;48016;50.284;18.860;2023-01-13T10:00:11;11.90;;;6.10;;
62056;SDS011;48016;50.284;18.860;2023-01-13T10:05:36;10.70;;;5.70;;
62056;SDS011;48016;50.284;18.860;2023-01-13T10:08:12;12.00;;;6.30;;
62056;SDS011;48016;50.284;18.860;2023-01-13T10:10:46;8.90;;;5.40;;
62056;SDS011;48016;50.284;18.860;2023-01-13T10:15:54;10.80;;;5.40;;
62056;SDS011;48016;50.284;18.860;2023-01-13T10:21:16;11.20;;;5.50;;
62056;SDS011;48016;50.284;18.860;2023-01-13T10:24:01;10.00;;;5.50;;
62056;SDS011;48016;50.284;18.860;2023-01-13T10:29:44;9.80;;;5.60;;
62056;SDS011;48016;50.284;18.860;2023-01-13T10:32:10;9.80;;;5.20;;
62056;SDS011;48016;50.284;18.860;2023-01-13T10:34:47;11.80;;;6.40;;
62056;SDS011;48016;50.284;18.860;2023-01-13T10:37:21;10.10;;;5.20;;
62056;SDS011;48016;50.284;18.860;2023-01-13T10:39:54;9.70;;;5.00;;
62056;SDS011;48016;50.284;18.860;2023-01-13T10:42:22;9.60;;;5.20;;
62056;SDS011;48016;50.284;18.860;2023-01-13T10:47:30;9.90;;;4.90;;
62056;SDS011;48016;50.284;18.860;2023-01-13T10:50:01;10.50;;;5.40;;
62056;SDS011;48016;50.284;18.860;2023-01-13T10:55:32;11.50;;;5.90;;
62056;SDS011;48016;50.284;18.860;2023-01-13T10:58:19;11.40;;;5.90;;
62056;SDS011;48016;50.284;18.860;2023-01-13T11:00:47;14.50;;;6.00;;
62056;SDS011;48016;50.284;18.860;2023-01-13T11:03:16;16.20;;;6.60;;
62056;SDS011;48016;50.284;18.860;2023-01-13T11:05:57;10.20;;;5.70;;
62056;SDS011;48016;50.284;18.860;2023-01-13T11:08:29;12.10;;;5.80;;
62056;SDS011;48016;50.284;18.860;2023-01-13T11:11:23;13.80;;;5.40;;
62056;SDS011;48016;50.284;18.860;2023-01-13T11:13:54;10.00;;;5.00;;
62056;SDS011;48016;50.284;18.860;2023-01-13T11:16:45;10.50;;;5.30;;
62056;SDS011;48016;50.284;18.860;2023-01-13T11:19:19;9.40;;;4.20;;
62056;SDS011;48016;50.284;18.860;2023-01-13T11:32:40;9.80;;;4.90;;
62056;SDS011;48016;50.284;18.860;2023-01-13T11:35:33;8.40;;;4.80;;
62056;SDS011;48016;50.284;18.860;2023-01-13T11:38:05;8.50;;;4.60;;
62056;SDS011;48016;50.284;18.860;2023-01-13T11:40:39;9.50;;;4.80;;
62056;SDS011;48016;50.284;18.860;2023-01-13T11:45:59;13.10;;;5.20;;
62056;SDS011;48016;50.284;18.860;2023-01-13T11:51:00;9.90;;;4.70;;
62056;SDS011;48016;50.284;18.860;2023-01-13T11:54:13;9.20;;;5.40;;
62056;SDS011;48016;50.284;18.860;2023-01-13T12:05:14;9.30;;;5.80;;
62056;SDS011;48016;50.284;18.860;2023-01-13T12:08:16;10.60;;;5.40;;
62056;SDS011;48016;50.284;18.860;2023-01-13T12:21:25;8.20;;;4.60;;
62056;SDS011;48016;50.284;18.860;2023-01-13T12:26:24;8.20;;;4.50;;
62056;SDS011;48016;50.284;18.860;2023-01-13T12:28:56;11.10;;;5.70;;
62056;SDS011;48016;50.284;18.860;2023-01-13T12:31:30;8.60;;;5.20;;
62056;SDS011;48016;50.284;18.860;2023-01-13T12:36:58;12.40;;;5.80;;
62056;SDS011;48016;50.284;18.860;2023-01-13T12:39:44;10.60;;;5.30;;
62056;SDS011;48016;50.284;18.860;2023-01-13T12:42:24;10.20;;;6.00;;
62056;SDS011;48016;50.284;18.860;2023-01-13T12:45:21;14.50;;;7.40;;
62056;SDS011;48016;50.284;18.860;2023-01-13T12:47:49;12.00;;;7.00;;
62056;SDS011;48016;50.284;18.860;2023-01-13T12:52:55;16.00;;;7.30;;
62056;SDS011;48016;50.284;18.860;2023-01-13T12:55:24;16.10;;;8.40;;
62056;SDS011;48016;50.284;18.860;2023-01-13T13:01:14;17.00;;;8.40;;
62056;SDS011;48016;50.284;18.860;2023-01-13T13:03:37;14.40;;;7.30;;
62056;SDS011;48016;50.284;18.860;2023-01-13T13:06:26;15.00;;;8.00;;
62056;SDS011;48016;50.284;18.860;2023-01-13T13:11:41;13.70;;;7.30;;
62056;SDS011;48016;50.284;18.860;2023-01-13T13:17:03;12.70;;;7.10;;
62056;SDS011;48016;50.284;18.860;2023-01-13T13:19:56;12.40;;;6.90;;
62056;SDS011;48016;50.284;18.860;2023-01-13T13:27:23;13.10;;;7.10;;
62056;SDS011;48016;50.284;18.860;2023-01-13T13:41:45;17.00;;;8.40;;
62056;SDS011;48016;50.284;18.860;2023-01-13T13:44:35;17.30;;;9.50;;
62056;SDS011;48016;50.284;18.860;2023-01-13T13:47:24;17.80;;;9.30;;
62056;SDS011;48016;50.284;18.860;2023-01-13T13:50:04;22.30;;;9.70;;
62056;SDS011;48016;50.284;18.860;2023-01-13T13:52:37;20.20;;;9.60;;
62056;SDS011;48016;50.284;18.860;2023-01-13T13:55:18;15.50;;;7.70;;
62056;SDS011;48016;50.284;18.860;2023-01-13T13:57:48;15.40;;;8.40;;
62056;SDS011;48016;50.284;18.860;2023-01-13T14:00:27;13.90;;;6.50;;
62056;SDS011;48016;50.284;18.860;2023-01-13T14:03:00;11.70;;;6.60;;
62056;SDS011;48016;50.284;18.860;2023-01-13T14:05:32;15.70;;;8.00;;
62056;SDS011;48016;50.284;18.860;2023-01-13T14:08:01;11.40;;;6.40;;
62056;SDS011;48016;50.284;18.860;2023-01-13T14:10:35;12.10;;;6.10;;
62056;SDS011;48016;50.284;18.860;2023-01-13T14:13:13;14.20;;;7.50;;
62056;SDS011;48016;50.284;18.860;2023-01-13T14:15:40;10.60;;;5.90;;
62056;SDS011;48016;50.284;18.860;2023-01-13T14:18:14;10.20;;;5.90;;
62056;SDS011;48016;50.284;18.860;2023-01-13T14:20:51;12.90;;;5.90;;
62056;SDS011;48016;50.284;18.860;2023-01-13T14:23:21;11.80;;;6.40;;
62056;SDS011;48016;50.284;18.860;2023-01-13T14:25:51;15.60;;;7.60;;
62056;SDS011;48016;50.284;18.860;2023-01-13T14:28:29;10.40;;;6.20;;
62056;SDS011;48016;50.284;18.860;2023-01-13T14:30:59;14.80;;;7.40;;
62056;SDS011;48016;50.284;18.860;2023-01-13T14:33:34;12.70;;;6.90;;
62056;SDS011;48016;50.284;18.860;2023-01-13T14:38:40;18.30;;;8.90;;
62056;SDS011;48016;50.284;18.860;2023-01-13T14:41:15;18.90;;;9.10;;
62056;SDS011;48016;50.284;18.860;2023-01-13T14:43:44;15.90;;;7.10;;
62056;SDS011;48016;50.284;18.860;2023-01-13T14:46:14;11.40;;;6.80;;
62056;SDS011;48016;50.284;18.860;2023-01-13T14:48:43;17.10;;;8.90;;
62056;SDS011;48016;50.284;18.860;2023-01-13T14:51:20;16.50;;;8.90;;
62056;SDS011;48016;50.284;18.860;2023-01-13T14:53:49;20.10;;;9.90;;
62056;SDS011;48016;50.284;18.860;2023-01-13T15:01:59;17.90;;;9.00;;
62056;SDS011;48016;50.284;18.860;2023-01-13T15:04:32;19.70;;;10.30;;
62056;SDS011;48016;50.284;18.860;2023-01-13T15:07:02;19.20;;;9.40;;
62056;SDS011;48016;50.284;18.860;2023-01-13T15:09:36;22.70;;;10.80;;
62056;SDS011;48016;50.284;18.860;2023-01-13T15:12:14;15.40;;;8.30;;
62056;SDS011;48016;50.284;18.860;2023-01-13T15:14:48;16.80;;;7.80;;
62056;SDS011;48016;50.284;18.860;2023-01-13T15:17:17;12.80;;;7.00;;
62056;SDS011;48016;50.284;18.860;2023-01-13T15:19:44;14.90;;;6.20;;
62056;SDS011;48016;50.284;18.860;2023-01-13T15:22:10;14.00;;;6.90;;
62056;SDS011;48016;50.284;18.860;2023-01-13T15:24:37;14.00;;;6.40;;
62056;SDS011;48016;50.284;18.860;2023-01-13T15:27:09;15.10;;;7.80;;
62056;SDS011;48016;50.284;18.860;2023-01-13T15:29:43;20.00;;;9.80;;
62056;SDS011;48016;50.284;18.860;2023-01-13T15:32:17;14.80;;;9.60;;
62056;SDS011;48016;50.284;18.860;2023-01-13T15:34:46;13.20;;;6.70;;
62056;SDS011;48016;50.284;18.860;2023-01-13T15:37:13;12.70;;;6.40;;
62056;SDS011;48016;50.284;18.860;2023-01-13T15:39:40;12.00;;;6.70;;
62056;SDS011;48016;50.284;18.860;2023-01-13T15:42:09;17.30;;;8.20;;
62056;SDS011;48016;50.284;18.860;2023-01-13T15:44:56;11.50;;;6.60;;
62056;SDS011;48016;50.284;18.860;2023-01-13T15:47:42;11.80;;;6.40;;
62056;SDS011;48016;50.284;18.860;2023-01-13T15:52:43;11.40;;;6.20;;
62056;SDS011;48016;50.284;18.860;2023-01-13T15:55:10;12.60;;;6.10;;
62056;SDS011;48016;50.284;18.860;2023-01-13T15:57:37;14.00;;;7.00;;
62056;SDS011;48016;50.284;18.860;2023-01-13T16:00:13;12.70;;;7.60;;
62056;SDS011;48016;50.284;18.860;2023-01-13T16:02:48;14.50;;;7.60;;
62056;SDS011;48016;50.284;18.860;2023-01-13T16:10:19;16.20;;;8.90;;
62056;SDS011;48016;50.284;18.860;2023-01-13T16:12:48;16.10;;;7.60;;
62056;SDS011;48016;50.284;18.860;2023-01-13T16:15:15;15.50;;;8.00;;
62056;SDS011;48016;50.284;18.860;2023-01-13T16:17:43;14.30;;;7.80;;
62056;SDS011;48016;50.284;18.860;2023-01-13T16:20:15;14.60;;;7.70;;
62056;SDS011;48016;50.284;18.860;2023-01-13T16:22:43;18.30;;;8.60;;
62056;SDS011;48016;50.284;18.860;2023-01-13T16:25:16;18.20;;;8.80;;
62056;SDS011;48016;50.284;18.860;2023-01-13T16:27:51;16.80;;;8.30;;
62056;SDS011;48016;50.284;18.860;2023-01-13T16:30:30;13.90;;;7.80;;
62056;SDS011;48016;50.284;18.860;2023-01-13T16:33:02;13.00;;;7.30;;
62056;SDS011;48016;50.284;18.860;2023-01-13T16:35:29;12.20;;;7.10;;
62056;SDS011;48016;50.284;18.860;2023-01-13T16:37:57;16.20;;;9.10;;
62056;SDS011;48016;50.284;18.860;2023-01-13T16:42:55;16.90;;;9.40;;
62056;SDS011;48016;50.284;18.860;2023-01-13T16:45:23;16.40;;;9.50;;
62056;SDS011;48016;50.284;18.860;2023-01-13T16:47:50;18.00;;;10.40;;
62056;SDS011;48016;50.284;18.860;2023-01-13T16:50:33;21.30;;;11.10;;
62056;SDS011;48016;50.284;18.860;2023-01-13T16:53:01;25.20;;;11.70;;
62056;SDS011;48016;50.284;18.860;2023-01-13T16:55:30;20.50;;;11.00;;
62056;SDS011;48016;50.284;18.860;2023-01-13T16:57:57;31.30;;;15.70;;
62056;SDS011;48016;50.284;18.860;2023-01-13T17:00:24;29.80;;;14.40;;
62056;SDS011;48016;50.284;18.860;2023-01-13T17:02:50;25.60;;;13.20;;
62056;SDS011;48016;50.284;18.860;2023-01-13T17:05:17;20.80;;;12.30;;
62056;SDS011;48016;50.284;18.860;2023-01-13T17:07:45;18.70;;;11.20;;
62056;SDS011;48016;50.284;18.860;2023-01-13T17:10:17;19.00;;;11.70;;
62056;SDS011;48016;50.284;18.860;2023-01-13T17:12:47;21.40;;;12.90;;
62056;SDS011;48016;50.284;18.860;2023-01-13T17:15:15;29.30;;;14.70;;
62056;SDS011;48016;50.284;18.860;2023-01-13T17:17:45;22.90;;;12.60;;
62056;SDS011;48016;50.284;18.860;2023-01-13T17:20:17;24.90;;;13.30;;
62056;SDS011;48016;50.284;18.860;2023-01-13T17:22:44;27.70;;;13.20;;
62056;SDS011;48016;50.284;18.860;2023-01-13T17:25:12;19.30;;;10.40;;
62056;SDS011;48016;50.284;18.860;2023-01-13T17:27:39;21.70;;;11.40;;
62056;SDS011;48016;50.284;18.860;2023-01-13T17:30:07;20.00;;;11.90;;